Rejestracja

Wszystkie dane podawane są w czasie UTC za wyjątkiem miejsc gdzie jest jednoznacznie podane, że jest inaczej. Dane podawane w serwisie mają charakter informacyjny!!!
Informacje w sprawie dostępu do serwisu pod numerem tel. +48 261-828-559 lub +48 261-828-138
Informacja dla żołnierzy i pracowników wojska: Prosimy o niezwłoczną zmianę adresu e-mail w profilu użytkownika na pocztę w domenie @ron.mil.pl

Aktualna Pogoda
 
Pogoda w Polsce
15°C Szczecin 14°C Suwałki 15°C Warszawa 13°C Poznan
16°C Opole 15°C Kraków 15°C Rzeszów
Więcej miast w Polsce

Pogoda w Europie
15°C Berlin 18°C Paryz 17°C Bruksela 14°C Oslo
16°C Praga 19°C Zagrzeb
Więcej miast w Europie

Metary wojskowe test
METAR EPBC 090600Z 27002KT CAVOK 17/11 Q1018=
METAR EPCE 090600Z 23008KT CAVOK 14/10 Q1015 RMK 141 077 3/3=
METAR EPDA 090600Z 22006KT 200V280 9999 FEW034 BKN047 BKN211 16/11 Q1015 RMK 155 073 7/1=
METAR EPDE 090600Z 29004KT 9999 FEW020 BKN090 17/12 Q1019 RMK 171 070 6/1=
METAR EPIR 090600Z 20006KT 9999 BKN085 15/11 Q1017 RMK 146 078 6/6=
METAR EPKS 090600Z 21003KT 170V260 9999 FEW008 BKN076 13/13 Q1017 RMK 130 100 7/2=
METAR EPLK 090600Z 22004KT 190V260 1500 BR OVC002 11/11 Q1018 RMK 112 100 8/8=
METAR EPLY 090600Z 24004KT 9999 FEW010 SCT100 14/12 Q1018 RMK 144 084 4/1=
METAR EPMB 090600Z AUTO 23005KT 9999 SCT040/// BKN084/// 13/11 Q1016 RMK 133 084 7/4=
METAR EPMI 090600Z 17003KT 140V200 9999 BKN045 13/10 Q1016 RMK 129 081 7/7=
METAR EPMM 090600Z 28003KT 260V350 9999 NSC 15/11 Q1018 RMK 153 073 3/1=
METAR EPNA 090600Z 22001KT 9999 SCT040 BKN070 14/06 Q1016 RMK 135 061 6/4=
METAR EPOK 090600Z 25005KT 200V300 9999 FEW031 BKN251 15/10 Q1015 RMK 148 072 7/1=
METAR EPPR 090600Z 24006KT 9999 SCT100 15/10 Q1016 RMK 154 072 4/4=
METAR EPPW 090600Z 24004KT 5000 BR BKN004 12/12 Q1017 RMK 121 100 7/7=
METAR EPSN 090600Z 21006KT 170V240 9999 BKN200 14/13 Q1016 RMK 140 094 7/7=
METAR EPTM 090600Z 20004KT 9999 FEW018 SCT060 BKN200 16/11 Q1018 RMK 155 076 6/2=


 

Prawa autorskie©2007 SSH SZ RP. Wszelkie prawa zastrzeżone.